createdAt,value
2023-05-09T00:00:20.410Z,81
2023-05-09T00:30:05.473Z,83
2023-05-09T01:00:28.459Z,82
2023-05-09T01:30:21.199Z,81
2023-05-09T02:00:24.102Z,82
2023-05-09T02:30:24.932Z,82
2023-05-09T03:00:06.404Z,80
2023-05-09T03:30:05.504Z,80
2023-05-09T04:00:27.517Z,85
2023-05-09T04:30:18.317Z,82
2023-05-09T05:00:02.521Z,84
2023-05-09T05:30:22.761Z,82
2023-05-09T06:00:23.796Z,83
2023-05-09T06:30:28.791Z,83
2023-05-09T07:00:01.279Z,80
2023-05-09T07:30:01.925Z,79
2023-05-09T08:30:22.603Z,74
2023-05-09T09:00:15.936Z,66
2023-05-09T09:30:05.646Z,66
2023-05-09T10:00:09.105Z,61
2023-05-09T10:30:10.479Z,54
2023-05-09T11:00:01.617Z,62
2023-05-09T11:30:15.210Z,61
2023-05-09T12:00:26.095Z,65
2023-05-09T12:30:09.075Z,58
2023-05-09T13:00:27.346Z,57
2023-05-09T13:30:28.426Z,57
2023-05-09T14:00:13.812Z,57
2023-05-09T14:30:03.288Z,67
2023-05-09T15:00:25.030Z,72
2023-05-09T15:30:27.442Z,80
2023-05-09T16:00:22.680Z,79
2023-05-09T16:30:05.205Z,81
2023-05-09T17:00:07.904Z,82
2023-05-09T18:00:28.219Z,84
2023-05-09T18:30:20.934Z,83
2023-05-09T19:00:01.033Z,84
2023-05-09T19:30:14.792Z,83
2023-05-09T20:00:26.064Z,82
2023-05-09T20:30:09.138Z,84
2023-05-09T21:00:30.630Z,84
2023-05-09T21:30:03.900Z,85
2023-05-09T22:30:15.177Z,85
2023-05-09T23:00:05.600Z,84
2023-05-09T23:30:28.145Z,82
